Ana Sayfa
METAR-TAF:

METAR-TAF

Havaalanları :

Strother Field

Winfield / Arkansas City, Kansas, Amerika Birleşik Devletleri

Enlem: 37-10-05N, Boylam: 097-02-13W, yükseklik: 353 m

Güncel hava durumu gözlemi

Rapor saat 19:54 UTC de 1 saat ve 15 dakika önce yapıldı.
Rüzgar kuzeydan 15 kt
Sıcaklık 7°C
Nem 36%
Basınç 1029 hPa
Görüş mesafesi: 16.1 km
Açık gökyüzü

METAR: KWLD 181954Z AUTO 36015KT 10SM CLR 07/M07 A3040 RMK AO2 SLP300 T00671072 $

Saat: 15:09 (21:09 UTC)


TAF: eksik

4.000'den fazla havaalanı için hava durumu gözlemleri ve tahminleri (METAR ve TAF raporları).

Kullanılabilir istasyonlar harita üzerinde sarı ve kırmızı noktalarla gösterilir.

İstasyonun adını görmek için fareyi noktanın üzerinde gezdirin.

Sonrasında hava gözlem ve tahminlerini görmek için tıklayın.

Haritayı değiştirmek için: yaklaştırmak için siyah artı işaretli yeşil düğmeye ve uzaklaştırmak için de eksi işaretli düğmeye hızla tıklayın; bitişik haritalar için yeşil okları kullanın.


METAR-TAF: